Terminal Aerodrome Forecast
Issued by NWS

Home | Current Version | Previous Version | Text Only | Print | Product List | Glossary On
Versions: 1 2 3 4 5 6 7 8 9 10 11 12 13
000
FTUS45 KVEF 232320
TAFVGT
TAF
KVGT 232320Z 2400/2424 17009KT P6SM FEW120
     FM240300 17007KT P6SM FEW120
     FM240500 VRB05KT P6SM SKC
     FM241500 11007KT P6SM SKC
     FM242100 14010G19KT P6SM SKC=

USA.gov is the U.S. government's official web portal to all federal, state and local government web resources and services.